Time;durP1;ratioP1;P1;durP2;ratioP2;P2;SDS_P1;SDS_P2;PMS_P1;PMS_P2;Temp;Humidity;BMP_temperature;BMP_pressure;BME280_temperature;BME280_humidity;BME280_pressure;Samples;Min_cycle;Max_cycle;Signal;HPM_P1;HPM_P2
2021/10/01 00:01:21;;;;;;;6.17;2.80;;;;;;;;;;5073729;28;20044;-58
2021/10/01 00:03:49;;;;;;;6.73;3.13;;;;;;;;;;5075999;28;20125;-58
2021/10/01 00:06:16;;;;;;;4.00;2.57;;;;;;;;;;5075737;28;20036;-57
2021/10/01 00:08:42;;;;;;;4.53;2.23;;;;;;;;;;5075607;28;20021;-57
2021/10/01 00:11:09;;;;;;;4.90;1.93;;;;;;;;;;5075796;28;20099;-58
2021/10/01 00:13:37;;;;;;;4.53;2.03;;;;;;;;;;5073171;28;20502;-58
2021/10/01 00:16:05;;;;;;;4.40;2.30;;;;;;;;;;5070785;28;20482;-58
2021/10/01 00:18:32;;;;;;;3.87;2.03;;;;;;;;;;5070693;28;20028;-57
2021/10/01 00:20:58;;;;;;;11.93;7.03;;;;;;;;;;5069969;28;20082;-58
2021/10/01 00:23:26;;;;;;;8.07;3.60;;;;;;;;;;5072613;28;20048;-57
2021/10/01 00:25:52;;;;;;;5.07;3.03;;;;;;;;;;5075236;28;20538;-57
2021/10/01 00:28:19;;;;;;;5.37;2.70;;;;;;;;;;5075483;28;20035;-57
2021/10/01 00:30:46;;;;;;;5.47;2.50;;;;;;;;;;5075225;28;20032;-58
2021/10/01 00:33:13;;;;;;;4.40;2.83;;;;;;;;;;5075534;28;20028;-57
2021/10/01 00:35:40;;;;;;;9.30;4.13;;;;;;;;;;5073434;28;20059;-58
2021/10/01 00:38:06;;;;;;;6.93;3.00;;;;;;;;;;5070017;28;20040;-57
2021/10/01 00:40:33;;;;;;;4.20;2.53;;;;;;;;;;5069951;28;20074;-57
2021/10/01 00:43:00;;;;;;;5.47;3.60;;;;;;;;;;5055148;28;20029;-58
2021/10/01 00:45:27;;;;;;;11.73;7.40;;;;;;;;;;5051759;28;20037;-57
2021/10/01 00:47:53;;;;;;;10.53;5.40;;;;;;;;;;5055246;28;20064;-57
2021/10/01 00:50:21;;;;;;;5.30;3.37;;;;;;;;;;5072207;28;20016;-57
2021/10/01 00:52:48;;;;;;;5.90;3.00;;;;;;;;;;5075072;28;20475;-57
2021/10/01 00:55:15;;;;;;;4.67;2.93;;;;;;;;;;5074868;28;20029;-58
2021/10/01 00:57:42;;;;;;;6.00;3.57;;;;;;;;;;5073043;28;20465;-58
2021/10/01 01:00:20;;;;;;;7.40;3.77;;;;;;;;;;5068429;28;20147;-57
2021/10/01 01:02:47;;;;;;;7.00;3.70;;;;;;;;;;5069953;28;20403;-58
2021/10/01 01:05:14;;;;;;;9.77;5.63;;;;;;;;;;5069534;28;20043;-57
2021/10/01 01:07:52;;;;;;;6.23;3.70;;;;;;;;;;5070690;28;20082;-58
2021/10/01 01:10:24;;;;;;;7.00;3.03;;;;;;;;;;5074883;28;20024;-57
2021/10/01 01:13:04;;;;;;;4.00;2.30;;;;;;;;;;5074761;28;20054;-57
2021/10/01 01:15:30;;;;;;;5.70;2.70;;;;;;;;;;5074515;28;20020;-57
2021/10/01 01:18:08;;;;;;;6.57;2.70;;;;;;;;;;5074256;28;20036;-57
2021/10/01 01:20:38;;;;;;;4.97;2.63;;;;;;;;;;5071845;28;20538;-57
2021/10/01 01:23:23;;;;;;;5.47;2.50;;;;;;;;;;5069655;28;20021;-57
2021/10/01 01:25:50;;;;;;;;;;;;;;;;;;5069731;28;20474;-57
2021/10/01 01:28:19;;;;;;;5.07;2.00;;;;;;;;;;5069443;28;19998;-57
2021/10/01 01:30:47;;;;;;;4.27;2.00;;;;;;;;;;5071239;28;20036;-58
2021/10/01 01:33:17;;;;;;;3.90;2.60;;;;;;;;;;5074545;28;20020;-58
2021/10/01 01:35:45;;;;;;;4.90;2.40;;;;;;;;;;5074204;28;20107;-57
2021/10/01 01:38:14;;;;;;;3.63;1.87;;;;;;;;;;5074368;28;20024;-58
2021/10/01 01:40:42;;;;;;;5.43;2.37;;;;;;;;;;5074263;28;20108;-58
2021/10/01 01:43:10;;;;;;;8.10;2.10;;;;;;;;;;5070124;28;20063;-58
2021/10/01 01:45:37;;;;;;;5.23;2.50;;;;;;;;;;5068451;28;20100;-58
2021/10/01 01:48:08;;;;;;;4.50;2.10;;;;;;;;;;5068908;28;20115;-56
2021/10/01 01:50:35;;;;;;;3.77;2.13;;;;;;;;;;5068850;28;20108;-57
2021/10/01 01:53:02;;;;;;;3.47;1.70;;;;;;;;;;5070728;28;20426;-58
2021/10/01 01:55:29;;;;;;;10.90;2.23;;;;;;;;;;5073501;28;20082;-57
2021/10/01 01:57:57;;;;;;;4.40;2.40;;;;;;;;;;5073902;28;20100;-57
2021/10/01 02:00:24;;;;;;;3.90;2.20;;;;;;;;;;5073528;28;20463;-58
2021/10/01 02:02:53;;;;;;;8.50;2.07;;;;;;;;;;5073419;28;20036;-57
2021/10/01 02:05:20;;;;;;;7.83;3.27;;;;;;;;;;5070460;28;20178;-57
2021/10/01 02:07:47;;;;;;;3.43;2.17;;;;;;;;;;5068482;28;20472;-57
2021/10/01 02:10:15;;;;;;;3.20;1.97;;;;;;;;;;5068321;28;20399;-57
2021/10/01 02:12:41;;;;;;;4.53;2.50;;;;;;;;;;5068805;28;20027;-57
2021/10/01 02:15:09;;;;;;;6.17;2.87;;;;;;;;;;5070491;28;20031;-57
2021/10/01 02:17:38;;;;;;;6.03;2.27;;;;;;;;;;5073177;28;20078;-56
2021/10/01 02:20:06;;;;;;;4.27;2.30;;;;;;;;;;5073505;28;20030;-56
2021/10/01 02:22:33;;;;;;;6.13;2.70;;;;;;;;;;5072965;28;20040;-57
2021/10/01 02:25:00;;;;;;;3.30;2.23;;;;;;;;;;5073350;28;20101;-56
2021/10/01 02:27:38;;;;;;;5.87;2.17;;;;;;;;;;5070288;28;20028;-57
2021/10/01 02:30:05;;;;;;;3.50;1.97;;;;;;;;;;5067798;28;20474;-57
2021/10/01 02:32:34;;;;;;;4.50;2.10;;;;;;;;;;5068375;28;20426;-57
2021/10/01 02:35:02;;;;;;;3.77;1.87;;;;;;;;;;5068218;28;20038;-57
2021/10/01 02:37:29;;;;;;;10.70;2.47;;;;;;;;;;5070649;28;20383;-57
2021/10/01 02:39:56;;;;;;;4.27;2.17;;;;;;;;;;5072605;28;20036;-57
2021/10/01 02:42:25;;;;;;;10.30;2.70;;;;;;;;;;5072801;28;20025;-57
2021/10/01 02:44:52;;;;;;;5.53;2.57;;;;;;;;;;5072968;28;20028;-57
2021/10/01 02:47:19;;;;;;;5.07;2.73;;;;;;;;;;5072376;28;20060;-58
2021/10/01 02:49:47;;;;;;;6.90;2.67;;;;;;;;;;5069914;28;20498;-58
2021/10/01 02:52:29;;;;;;;4.47;2.37;;;;;;;;;;5067779;28;20676;-58
2021/10/01 02:54:59;;;;;;;6.87;2.80;;;;;;;;;;5067920;28;20028;-57
2021/10/01 02:57:28;;;;;;;5.57;2.67;;;;;;;;;;5066930;28;20031;-57
2021/10/01 02:59:56;;;;;;;4.03;2.40;;;;;;;;;;5070016;28;20023;-58
2021/10/01 03:02:24;;;;;;;5.03;2.53;;;;;;;;;;5072817;28;20021;-58
2021/10/01 03:04:52;;;;;;;5.33;2.63;;;;;;;;;;5072576;28;20025;-57
2021/10/01 03:07:20;;;;;;;5.20;2.77;;;;;;;;;;5072196;28;20068;-57
2021/10/01 03:09:48;;;;;;;6.70;2.40;;;;;;;;;;5072583;28;20055;-57
2021/10/01 03:12:16;;;;;;;4.23;2.57;;;;;;;;;;5069547;28;20372;-57
2021/10/01 03:14:42;;;;;;;9.27;2.70;;;;;;;;;;5067021;28;20509;-57
2021/10/01 03:17:09;;;;;;;7.27;2.83;;;;;;;;;;5067528;28;20020;-58
2021/10/01 03:19:37;;;;;;;7.80;3.07;;;;;;;;;;5067465;28;20046;-58
2021/10/01 03:22:05;;;;;;;3.93;2.37;;;;;;;;;;5068870;28;20376;-58
2021/10/01 03:24:32;;;;;;;8.63;2.73;;;;;;;;;;5072235;28;20059;-58
2021/10/01 03:26:59;;;;;;;4.37;2.57;;;;;;;;;;5072321;28;20048;-58
2021/10/01 03:29:26;;;;;;;6.93;2.83;;;;;;;;;;5072438;28;20028;-59
2021/10/01 03:31:53;;;;;;;5.10;2.50;;;;;;;;;;5071718;28;20391;-58
2021/10/01 03:34:19;;;;;;;5.07;2.33;;;;;;;;;;5070338;28;20396;-58
2021/10/01 03:36:46;;;;;;;5.73;2.50;;;;;;;;;;5067229;28;20036;-58
2021/10/01 03:39:13;;;;;;;6.20;2.60;;;;;;;;;;5066896;28;20035;-58
2021/10/01 03:41:40;;;;;;;12.37;2.80;;;;;;;;;;5067297;28;20028;-58
2021/10/01 03:44:07;;;;;;;7.63;2.57;;;;;;;;;;5069148;28;20078;-58
2021/10/01 03:46:33;;;;;;;10.70;2.93;;;;;;;;;;5072235;28;20032;-58
2021/10/01 03:49:00;;;;;;;3.43;2.37;;;;;;;;;;5071217;28;20024;-57
2021/10/01 08:18:38;;;;;;;7.45;2.83;;;;;;;;;;5075892;28;20086;-58
2021/10/01 08:21:05;;;;;;;5.60;2.50;;;;;;;;;;5055709;28;20041;-58
2021/10/01 08:23:32;;;;;;;5.40;3.53;;;;;;;;;;5054447;28;20028;-57
2021/10/01 08:25:59;;;;;;;8.23;3.00;;;;;;;;;;5050539;28;20037;-58
2021/10/01 08:28:26;;;;;;;10.97;3.23;;;;;;;;;;5061147;28;20017;-57
2021/10/01 08:30:52;;;;;;;8.13;2.67;;;;;;;;;;5070578;28;20029;-57
2021/10/01 08:33:19;;;;;;;14.60;4.23;;;;;;;;;;5070779;28;20463;-57
2021/10/01 08:35:46;;;;;;;7.23;2.47;;;;;;;;;;5075267;28;20481;-57
2021/10/01 08:38:13;;;;;;;6.40;3.10;;;;;;;;;;5075166;28;20021;-57
2021/10/01 08:40:39;;;;;;;5.23;2.63;;;;;;;;;;5075301;28;20052;-58
2021/10/01 08:43:07;;;;;;;5.43;3.00;;;;;;;;;;5066364;28;20029;-57
2021/10/01 08:45:36;;;;;;;5.20;2.93;;;;;;;;;;5054296;28;20449;-57
2021/10/01 08:48:03;;;;;;;8.53;2.63;;;;;;;;;;5062846;28;20078;-57
2021/10/01 08:50:30;;;;;;;12.63;3.47;;;;;;;;;;5069783;28;20029;-58
2021/10/01 08:52:59;;;;;;;6.23;3.33;;;;;;;;;;5070138;28;20104;-57
2021/10/01 08:55:27;;;;;;;7.83;3.37;;;;;;;;;;5070186;28;20030;-57
2021/10/01 08:57:54;;;;;;;5.77;2.97;;;;;;;;;;5074684;28;20476;-57
2021/10/01 09:00:21;;;;;;;4.87;3.00;;;;;;;;;;5074836;28;20021;-58
2021/10/01 09:02:48;;;;;;;6.30;3.43;;;;;;;;;;5074670;28;20495;-58
2021/10/01 09:05:15;;;;;;;5.17;2.93;;;;;;;;;;5074994;28;20024;-57
2021/10/01 09:07:42;;;;;;;10.10;3.40;;;;;;;;;;5073429;28;20384;-57
2021/10/01 09:10:13;;;;;;;6.47;3.00;;;;;;;;;;5069687;28;20064;-57
2021/10/01 09:12:42;;;;;;;4.57;2.70;;;;;;;;;;5069861;28;20044;-57
2021/10/01 09:15:09;;;;;;;9.97;3.40;;;;;;;;;;5069388;28;20047;-58
2021/10/01 09:17:36;;;;;;;7.00;2.97;;;;;;;;;;5069571;28;20021;-58
2021/10/01 09:20:04;;;;;;;6.27;2.97;;;;;;;;;;5073120;28;20033;-58
2021/10/01 09:22:35;;;;;;;5.13;2.70;;;;;;;;;;5074025;28;20020;-58
2021/10/01 09:25:15;;;;;;;6.27;3.20;;;;;;;;;;5074771;28;20093;-58
2021/10/01 09:27:43;;;;;;;4.57;2.60;;;;;;;;;;5074363;28;20111;-57
2021/10/01 09:30:10;;;;;;;5.33;2.73;;;;;;;;;;5073611;28;20021;-57
2021/10/01 09:32:37;;;;;;;11.27;3.70;;;;;;;;;;5068969;28;20021;-58
2021/10/01 09:35:12;;;;;;;5.03;3.00;;;;;;;;;;5069312;28;20052;-57
2021/10/01 09:37:39;;;;;;;6.07;2.90;;;;;;;;;;5069190;28;20036;-57
2021/10/01 09:40:07;;;;;;;6.00;3.00;;;;;;;;;;5069862;28;20051;-58
2021/10/01 09:42:49;;;;;;;5.83;2.67;;;;;;;;;;5074213;28;20028;-57
2021/10/01 09:45:18;;;;;;;6.23;2.77;;;;;;;;;;5073643;28;20033;-57
2021/10/01 09:47:46;;;;;;;7.30;2.20;;;;;;;;;;5073453;28;20039;-58
2021/10/01 09:50:15;;;;;;;5.77;2.67;;;;;;;;;;5074151;28;20111;-57
2021/10/01 09:52:43;;;;;;;9.33;2.73;;;;;;;;;;5072613;28;20016;-57
2021/10/01 09:55:10;;;;;;;5.83;2.90;;;;;;;;;;5068901;28;20032;-57
2021/10/01 09:57:38;;;;;;;4.50;2.50;;;;;;;;;;5068755;28;20024;-57
2021/10/01 10:00:06;;;;;;;7.00;2.70;;;;;;;;;;5068380;28;20070;-58
2021/10/01 10:02:37;;;;;;;8.17;2.97;;;;;;;;;;5069601;28;20024;-57
2021/10/01 10:05:04;;;;;;;4.77;2.77;;;;;;;;;;5073574;28;20025;-57
2021/10/01 10:07:30;;;;;;;3.73;2.57;;;;;;;;;;5073643;28;20039;-57
2021/10/01 10:09:58;;;;;;;4.73;2.30;;;;;;;;;;5073673;28;20380;-57
2021/10/01 10:12:34;;;;;;;4.93;2.60;;;;;;;;;;5073675;28;20100;-57
2021/10/01 10:15:02;;;;;;;8.57;2.87;;;;;;;;;;5071455;28;20032;-57
2021/10/01 10:17:30;;;;;;;5.80;2.50;;;;;;;;;;5068583;28;20028;-58
2021/10/01 10:19:58;;;;;;;5.23;2.47;;;;;;;;;;5068326;28;20448;-57
2021/10/01 10:22:25;;;;;;;5.77;2.63;;;;;;;;;;5068497;28;20095;-58
2021/10/01 10:24:53;;;;;;;6.37;2.90;;;;;;;;;;5069346;28;20026;-57
2021/10/01 10:27:21;;;;;;;7.00;2.63;;;;;;;;;;5073121;28;20093;-58
2021/10/01 10:29:48;;;;;;;5.23;2.47;;;;;;;;;;5072819;28;20033;-57
2021/10/01 10:32:16;;;;;;;6.63;2.57;;;;;;;;;;5073016;28;20095;-57
2021/10/01 10:34:50;;;;;;;5.40;2.70;;;;;;;;;;5073117;28;20024;-57
2021/10/01 10:37:18;;;;;;;6.80;3.13;;;;;;;;;;5071460;28;20028;-57
2021/10/01 10:39:47;;;;;;;4.87;2.57;;;;;;;;;;5067565;28;20047;-58
2021/10/01 10:42:20;;;;;;;5.77;2.40;;;;;;;;;;5067631;28;20020;-57
2021/10/01 10:44:57;;;;;;;10.53;2.70;;;;;;;;;;5068172;28;20538;-57
2021/10/01 10:47:43;;;;;;;9.30;4.93;;;;;;;;;;5069333;28;20384;-57
2021/10/01 10:50:24;;;;;;;9.90;3.47;;;;;;;;;;5072457;28;20476;-57
2021/10/01 10:55:34;;;;;;;8.57;3.90;;;;;;;;;;5072913;28;20029;-57
2021/10/01 10:58:20;;;;;;;10.77;4.40;;;;;;;;;;5072706;28;20565;-57
2021/10/01 11:00:48;;;;;;;6.90;4.40;;;;;;;;;;5068439;28;20518;-57
2021/10/01 11:03:19;;;;;;;8.23;4.33;;;;;;;;;;5067217;28;20031;-58
2021/10/01 11:06:05;;;;;;;9.93;6.80;;;;;;;;;;5067370;28;20040;-58
2021/10/01 11:08:32;;;;;;;14.83;7.70;;;;;;;;;;5067100;28;20028;-58
2021/10/01 11:10:59;;;;;;;9.73;4.90;;;;;;;;;;5071765;28;20045;-57
2021/10/01 11:13:30;;;;;;;9.50;5.27;;;;;;;;;;5072438;28;20542;-57
2021/10/01 11:16:09;;;;;;;7.10;4.73;;;;;;;;;;5072357;28;20111;-57
2021/10/01 11:18:37;;;;;;;9.40;4.90;;;;;;;;;;5072160;28;20475;-58
2021/10/01 11:21:22;;;;;;;9.00;4.70;;;;;;;;;;5072646;28;20020;-57
2021/10/01 11:23:59;;;;;;;8.55;5.00;;;;;;;;;;5067546;28;20025;-57
2021/10/01 11:26:26;;;;;;;6.60;3.87;;;;;;;;;;5067413;28;20033;-58
2021/10/01 11:28:53;;;;;;;7.30;4.33;;;;;;;;;;5067086;28;20082;-58
2021/10/01 11:31:20;;;;;;;9.90;4.47;;;;;;;;;;5067380;28;20020;-58
2021/10/01 11:33:48;;;;;;;6.93;4.00;;;;;;;;;;5071950;28;20036;-58
2021/10/01 11:36:15;;;;;;;6.53;3.37;;;;;;;;;;5071795;28;20039;-58
2021/10/01 11:38:41;;;;;;;5.33;2.77;;;;;;;;;;5072510;28;20479;-57
2021/10/01 11:41:10;;;;;;;4.90;3.17;;;;;;;;;;5072540;28;20357;-57
2021/10/01 11:43:49;;;;;;;7.10;3.57;;;;;;;;;;5057897;28;20021;-58
2021/10/01 11:46:24;;;;;;;5.90;3.30;;;;;;;;;;5056473;28;20123;-58
2021/10/01 11:48:51;;;;;;;7.83;3.80;;;;;;;;;;5067258;28;20032;-58
2021/10/01 11:51:18;;;;;;;5.23;3.60;;;;;;;;;;5066563;28;20112;-57
2021/10/01 11:53:44;;;;;;;13.40;4.17;;;;;;;;;;5067733;28;20017;-57
2021/10/01 11:56:12;;;;;;;7.23;4.30;;;;;;;;;;5071926;28;20024;-57
2021/10/01 11:58:40;;;;;;;7.43;3.87;;;;;;;;;;5071874;28;20407;-58
2021/10/01 12:01:09;;;;;;;7.73;4.00;;;;;;;;;;5071693;28;20046;-57
2021/10/01 12:03:36;;;;;;;9.83;4.17;;;;;;;;;;5072182;28;20116;-57
2021/10/01 12:06:03;;;;;;;6.80;3.60;;;;;;;;;;5070338;28;20064;-57
2021/10/01 12:08:34;;;;;;;8.80;3.47;;;;;;;;;;5067032;28;20024;-59
2021/10/01 12:11:02;;;;;;;6.87;3.63;;;;;;;;;;5066952;28;20039;-57
2021/10/01 12:13:29;;;;;;;7.37;3.37;;;;;;;;;;5067056;28;20037;-58
2021/10/01 12:16:00;;;;;;;6.60;3.27;;;;;;;;;;5066428;28;20072;-57
2021/10/01 12:18:38;;;;;;;6.53;3.77;;;;;;;;;;5071817;28;20040;-58
2021/10/01 12:21:07;;;;;;;9.83;3.87;;;;;;;;;;5071436;28;20120;-58
2021/10/01 12:23:38;;;;;;;10.97;4.00;;;;;;;;;;5071755;28;20078;-57
2021/10/01 12:26:34;;;;;;;14.43;3.77;;;;;;;;;;5071721;28;20548;-57
2021/10/01 12:29:19;;;;;;;10.20;3.33;;;;;;;;;;5048605;28;20036;-57
2021/10/01 12:31:50;;;;;;;7.85;3.80;;;;;;;;;;5066420;28;20412;-58
2021/10/01 12:34:19;;;;;;;6.90;3.60;;;;;;;;;;5066858;28;20024;-58
2021/10/01 12:36:47;;;;;;;9.90;3.43;;;;;;;;;;5066704;28;20024;-58
2021/10/01 12:39:14;;;;;;;5.00;3.07;;;;;;;;;;5069191;28;20025;-57
2021/10/01 12:41:41;;;;;;;9.13;3.80;;;;;;;;;;5071319;28;20039;-59
2021/10/01 12:44:12;;;;;;;4.90;2.90;;;;;;;;;;5071502;28;20070;-58
2021/10/01 12:46:45;;;;;;;8.87;3.80;;;;;;;;;;5071478;28;20563;-57
2021/10/01 12:49:25;;;;;;;6.90;3.07;;;;;;;;;;5071869;28;20056;-57
2021/10/01 12:52:02;;;;;;;5.97;3.10;;;;;;;;;;5067579;28;20064;-58
2021/10/01 12:54:33;;;;;;;19.33;12.60;;;;;;;;;;5067242;28;20078;-57
2021/10/01 12:57:18;;;;;;;29.83;18.87;;;;;;;;;;5069431;28;20027;-57
2021/10/01 13:00:08;;;;;;;16.48;12.15;;;;;;;;;;5070180;28;20028;-57
2021/10/01 13:02:35;;;;;;;11.10;8.30;;;;;;;;;;5074494;28;20483;-57
2021/10/01 13:05:04;;;;;;;7.63;5.20;;;;;;;;;;5074872;28;20028;-57
2021/10/01 13:07:32;;;;;;;9.40;5.80;;;;;;;;;;5074818;28;20040;-57
2021/10/01 13:10:19;;;;;;;6.53;5.40;;;;;;;;;;5075066;28;20029;-58
2021/10/01 13:12:54;;;;;;;5.67;4.03;;;;;;;;;;5071187;28;20039;-58
2021/10/01 13:15:32;;;;;;;7.63;4.50;;;;;;;;;;5069691;28;20036;-58
2021/10/01 13:18:27;;;;;;;6.77;4.13;;;;;;;;;;5069877;28;20032;-58
2021/10/01 13:21:03;;;;;;;6.15;4.43;;;;;;;;;;5032725;28;20095;-57
2021/10/01 13:23:35;;;;;;;6.67;3.93;;;;;;;;;;5071637;28;20032;-57
2021/10/01 13:26:22;;;;;;;11.13;3.90;;;;;;;;;;5074703;28;20033;-57
2021/10/01 13:28:50;;;;;;;7.10;3.40;;;;;;;;;;5074561;28;20024;-57
2021/10/01 13:31:18;;;;;;;11.23;4.30;;;;;;;;;;5073989;28;20020;-57
2021/10/01 13:33:46;;;;;;;8.77;3.73;;;;;;;;;;5074132;28;20037;-58
2021/10/01 13:36:13;;;;;;;9.50;4.83;;;;;;;;;;5071264;28;20099;-58
2021/10/01 13:38:41;;;;;;;7.20;3.80;;;;;;;;;;5069177;28;20028;-57
2021/10/01 13:41:09;;;;;;;6.33;4.20;;;;;;;;;;5069098;28;20021;-57
2021/10/01 13:43:37;;;;;;;7.27;3.13;;;;;;;;;;5069226;28;20184;-57
2021/10/01 13:46:04;;;;;;;6.90;4.37;;;;;;;;;;5071442;28;20161;-58
2021/10/01 13:48:31;;;;;;;5.80;3.50;;;;;;;;;;5074112;28;20029;-58
2021/10/01 13:50:58;;;;;;;4.50;3.33;;;;;;;;;;5073664;28;20360;-57
2021/10/01 13:53:25;;;;;;;7.13;3.70;;;;;;;;;;5074257;28;20056;-58
2021/10/01 13:55:52;;;;;;;6.70;4.13;;;;;;;;;;5074080;28;20017;-58
2021/10/01 13:58:19;;;;;;;8.27;3.37;;;;;;;;;;5071231;28;20025;-58
2021/10/01 14:00:47;;;;;;;6.63;3.70;;;;;;;;;;5068719;28;20028;-58
2021/10/01 14:03:14;;;;;;;10.53;4.00;;;;;;;;;;5068534;28;20029;-58
2021/10/01 14:05:41;;;;;;;6.77;4.13;;;;;;;;;;5068453;28;20024;-58
2021/10/01 14:08:08;;;;;;;8.50;4.70;;;;;;;;;;5070453;28;20023;-58
2021/10/01 14:10:36;;;;;;;7.93;4.20;;;;;;;;;;5073423;28;20104;-58
2021/10/01 14:13:10;;;;;;;10.80;4.80;;;;;;;;;;5073560;28;20056;-57
2021/10/01 14:15:38;;;;;;;10.98;5.10;;;;;;;;;;5073288;28;20392;-58
2021/10/01 14:18:05;;;;;;;10.00;5.90;;;;;;;;;;5073127;28;20444;-58
2021/10/01 14:20:32;;;;;;;9.77;4.43;;;;;;;;;;5070614;28;20062;-58
2021/10/01 14:23:00;;;;;;;8.60;5.13;;;;;;;;;;5068364;28;20032;-58
2021/10/01 14:25:27;;;;;;;8.03;5.30;;;;;;;;;;5068554;28;20423;-58
2021/10/01 14:27:58;;;;;;;8.00;4.80;;;;;;;;;;5068357;28;20032;-58
2021/10/01 14:30:30;;;;;;;5.60;4.30;;;;;;;;;;5070491;28;20111;-58
2021/10/01 14:32:57;;;;;;;8.67;3.77;;;;;;;;;;5053052;28;20025;-58
2021/10/01 14:35:24;;;;;;;11.37;4.03;;;;;;;;;;5053276;28;20675;-59
2021/10/01 14:37:51;;;;;;;10.30;4.17;;;;;;;;;;5053329;28;20029;-59
2021/10/01 14:40:18;;;;;;;6.30;3.47;;;;;;;;;;5052964;28;20384;-58
2021/10/01 14:42:45;;;;;;;5.17;3.43;;;;;;;;;;5068865;28;20032;-60
2021/10/01 14:45:13;;;;;;;7.00;4.20;;;;;;;;;;5068084;28;20021;-58
2021/10/01 14:47:39;;;;;;;6.80;3.30;;;;;;;;;;5067551;28;20033;-58
2021/10/01 14:50:09;;;;;;;6.77;3.83;;;;;;;;;;5067970;28;20025;-58
2021/10/01 14:52:36;;;;;;;6.57;4.03;;;;;;;;;;5069483;28;20064;-58
2021/10/01 14:55:03;;;;;;;7.33;3.60;;;;;;;;;;5072890;28;20052;-58
2021/10/01 14:57:30;;;;;;;6.30;4.37;;;;;;;;;;5073081;28;20025;-58
2021/10/01 14:59:57;;;;;;;7.17;4.07;;;;;;;;;;5072931;28;20081;-58
2021/10/01 15:02:24;;;;;;;7.93;4.07;;;;;;;;;;5072458;28;20028;-58
2021/10/01 15:04:50;;;;;;;13.27;3.70;;;;;;;;;;5069523;28;20028;-58
2021/10/01 15:07:17;;;;;;;7.97;4.77;;;;;;;;;;5067563;28;20068;-59
2021/10/01 15:09:44;;;;;;;6.93;4.23;;;;;;;;;;5067328;28;20549;-58
2021/10/01 15:12:11;;;;;;;8.33;4.23;;;;;;;;;;5067749;28;20503;-58
2021/10/01 15:14:38;;;;;;;5.70;3.50;;;;;;;;;;5069040;28;20138;-58
2021/10/01 15:17:05;;;;;;;6.50;3.63;;;;;;;;;;5071693;28;20064;-58
2021/10/01 15:19:32;;;;;;;6.97;3.83;;;;;;;;;;5071423;28;20527;-58
2021/10/01 15:21:58;;;;;;;9.83;4.30;;;;;;;;;;5069181;28;20403;-58
2021/10/01 15:24:25;;;;;;;7.07;3.87;;;;;;;;;;5065386;28;20048;-58
2021/10/01 15:26:53;;;;;;;4.37;3.33;;;;;;;;;;5053797;28;20044;-58
2021/10/01 15:29:20;;;;;;;6.63;3.37;;;;;;;;;;5051137;28;20027;-58
2021/10/01 15:31:47;;;;;;;5.93;3.70;;;;;;;;;;5067427;28;20028;-59
2021/10/01 15:34:14;;;;;;;6.27;3.20;;;;;;;;;;5067021;28;20040;-59
2021/10/01 15:36:41;;;;;;;4.50;3.13;;;;;;;;;;5068239;28;20027;-59
2021/10/01 15:39:07;;;;;;;7.43;3.73;;;;;;;;;;5072192;28;20031;-59
2021/10/01 15:41:34;;;;;;;4.60;3.63;;;;;;;;;;5071909;28;20032;-59
2021/10/01 15:44:01;;;;;;;4.93;3.00;;;;;;;;;;5072292;28;20074;-59
2021/10/01 15:46:28;;;;;;;6.40;3.37;;;;;;;;;;5071803;28;20071;-59
2021/10/01 15:48:54;;;;;;;5.53;3.40;;;;;;;;;;5070368;28;20021;-59
2021/10/01 15:51:21;;;;;;;8.10;3.53;;;;;;;;;;5066305;28;20051;-59
2021/10/01 15:53:48;;;;;;;5.47;2.87;;;;;;;;;;5066567;28;20032;-59
2021/10/01 15:56:15;;;;;;;5.60;3.47;;;;;;;;;;5066805;28;20480;-59
2021/10/01 15:58:42;;;;;;;6.47;3.23;;;;;;;;;;5067180;28;20531;-59
2021/10/01 16:01:08;;;;;;;8.10;3.67;;;;;;;;;;5071584;28;20464;-59
2021/10/01 16:03:38;;;;;;;6.30;3.63;;;;;;;;;;5071803;28;20142;-59
2021/10/01 16:06:05;;;;;;;4.60;3.40;;;;;;;;;;5070962;28;20048;-60
2021/10/01 16:08:31;;;;;;;4.87;3.80;;;;;;;;;;5071970;28;20033;-59
2021/10/01 16:10:58;;;;;;;5.53;3.70;;;;;;;;;;5070153;28;20098;-59
2021/10/01 16:13:25;;;;;;;8.17;3.60;;;;;;;;;;5066961;28;20024;-60
2021/10/01 16:15:52;;;;;;;8.03;4.87;;;;;;;;;;5066701;28;20081;-59
2021/10/01 16:18:19;;;;;;;6.77;3.70;;;;;;;;;;5067079;28;20067;-61
2021/10/01 16:20:45;;;;;;;7.60;3.93;;;;;;;;;;5066388;28;20025;-59
2021/10/01 16:23:13;;;;;;;6.67;4.27;;;;;;;;;;5071088;28;20020;-60
2021/10/01 16:25:40;;;;;;;6.13;3.10;;;;;;;;;;5071291;28;20033;-60
2021/10/01 16:28:07;;;;;;;8.73;3.30;;;;;;;;;;5070694;28;20025;-59
2021/10/01 16:30:34;;;;;;;4.80;3.43;;;;;;;;;;5073580;28;20024;-59
2021/10/01 16:33:01;;;;;;;4.20;3.30;;;;;;;;;;5062449;28;20368;-60
2021/10/01 16:35:28;;;;;;;10.18;3.78;;;;;;;;;;5070709;28;20025;-60
2021/10/01 16:37:55;;;;;;;9.45;4.68;;;;;;;;;;5070626;28;20021;-59
2021/10/01 16:40:22;;;;;;;8.23;4.15;;;;;;;;;;5069799;28;20049;-59
2021/10/01 16:42:50;;;;;;;6.35;3.97;;;;;;;;;;5070258;28;20032;-59
2021/10/01 16:45:17;;;;;;;4.47;3.50;;;;;;;;;;5074711;28;20092;-59
2021/10/01 16:47:43;;;;;;;5.60;3.58;;;;;;;;;;5075317;28;20032;-59
2021/10/01 16:50:11;;;;;;;8.05;3.97;;;;;;;;;;5075473;28;20024;-59
2021/10/01 16:52:39;;;;;;;10.50;4.25;;;;;;;;;;5074112;28;20036;-61
2021/10/01 16:55:07;;;;;;;5.82;3.70;;;;;;;;;;5074969;28;20568;-59
2021/10/01 16:57:34;;;;;;;6.78;4.63;;;;;;;;;;5069027;28;20441;-59
2021/10/01 17:00:04;;;;;;;4.75;3.65;;;;;;;;;;5069012;28;20108;-61
2021/10/01 17:02:30;;;;;;;6.05;3.65;;;;;;;;;;5069479;28;20107;-59
2021/10/01 17:04:57;;;;;;;4.53;2.88;;;;;;;;;;5069556;28;20040;-59
2021/10/01 17:07:24;;;;;;;5.78;3.63;;;;;;;;;;5073874;28;20055;-59
2021/10/01 17:09:51;;;;;;;6.20;3.42;;;;;;;;;;5074545;28;20047;-59
2021/10/01 17:12:17;;;;;;;6.18;3.42;;;;;;;;;;5073760;28;20112;-60
2021/10/01 17:14:44;;;;;;;6.03;3.70;;;;;;;;;;5074041;28;20074;-60
2021/10/01 17:17:11;;;;;;;5.30;3.60;;;;;;;;;;5073715;28;20037;-59
2021/10/01 17:19:38;;;;;;;5.82;3.00;;;;;;;;;;5069873;28;20099;-60
2021/10/01 17:22:05;;;;;;;6.45;3.50;;;;;;;;;;5068581;28;20767;-59
2021/10/01 17:24:32;;;;;;;7.18;3.17;;;;;;;;;;5068815;28;20075;-59
2021/10/01 17:26:58;;;;;;;5.03;3.00;;;;;;;;;;5068817;28;20033;-59
2021/10/01 17:29:25;;;;;;;7.35;2.65;;;;;;;;;;5072629;28;20028;-59
2021/10/01 17:31:52;;;;;;;6.00;3.17;;;;;;;;;;5074187;28;20035;-60
2021/10/01 17:34:19;;;;;;;4.45;2.30;;;;;;;;;;5074258;28;20029;-60
2021/10/01 17:36:46;;;;;;;5.63;3.50;;;;;;;;;;5073935;28;20085;-59
2021/10/01 17:39:13;;;;;;;8.02;3.90;;;;;;;;;;5074277;28;20052;-60
2021/10/01 17:41:40;;;;;;;6.00;4.15;;;;;;;;;;5068616;28;20411;-60
2021/10/01 17:44:08;;;;;;;7.18;3.97;;;;;;;;;;5064599;28;20421;-61
2021/10/01 17:46:35;;;;;;;5.20;3.70;;;;;;;;;;5068610;28;20028;-59
2021/10/01 17:49:01;;;;;;;4.68;3.63;;;;;;;;;;5068280;28;20029;-59
2021/10/01 17:51:28;;;;;;;5.88;3.67;;;;;;;;;;5071630;28;20032;-60
2021/10/01 17:53:55;;;;;;;6.10;3.80;;;;;;;;;;5073437;28;20252;-60
2021/10/01 17:56:22;;;;;;;7.45;3.42;;;;;;;;;;5073735;28;20036;-59
2021/10/01 17:58:48;;;;;;;5.93;3.78;;;;;;;;;;5073596;28;20028;-59
2021/10/01 18:01:15;;;;;;;4.78;3.45;;;;;;;;;;5073731;28;20031;-59
2021/10/01 18:03:43;;;;;;;6.88;3.67;;;;;;;;;;5070230;28;20089;-59
2021/10/01 18:06:10;;;;;;;7.93;4.00;;;;;;;;;;5067884;28;20033;-60
2021/10/01 18:08:37;;;;;;;5.28;3.25;;;;;;;;;;5068296;28;20353;-60
2021/10/01 18:11:04;;;;;;;6.35;3.65;;;;;;;;;;5068080;28;20476;-60
2021/10/01 18:13:31;;;;;;;8.65;3.95;;;;;;;;;;5071199;28;20426;-60
2021/10/01 18:15:57;;;;;;;8.18;3.78;;;;;;;;;;5073202;28;20047;-60
2021/10/01 18:18:24;;;;;;;7.55;3.67;;;;;;;;;;5073484;28;20021;-60
2021/10/01 18:20:51;;;;;;;9.05;4.57;;;;;;;;;;5072688;28;20052;-60
2021/10/01 18:23:18;;;;;;;5.43;3.53;;;;;;;;;;5072359;28;20094;-60
2021/10/01 18:25:45;;;;;;;9.32;3.42;;;;;;;;;;5070149;28;20032;-60
2021/10/01 18:28:12;;;;;;;9.50;3.70;;;;;;;;;;5067570;28;20021;-59
2021/10/01 18:30:39;;;;;;;8.70;4.07;;;;;;;;;;5067282;28;20475;-60
2021/10/01 18:33:05;;;;;;;8.32;3.65;;;;;;;;;;5067890;28;20028;-60
2021/10/01 18:35:32;;;;;;;4.53;3.67;;;;;;;;;;5069845;28;20484;-60
2021/10/01 18:37:59;;;;;;;4.63;3.35;;;;;;;;;;5072791;28;20028;-60
2021/10/01 18:40:26;;;;;;;6.88;3.47;;;;;;;;;;5072675;28;20028;-59
2021/10/01 18:42:53;;;;;;;6.35;3.40;;;;;;;;;;5072934;28;20024;-61
2021/10/01 18:45:19;;;;;;;5.68;3.80;;;;;;;;;;5072662;28;20050;-59
2021/10/01 18:47:47;;;;;;;11.02;4.30;;;;;;;;;;5069359;28;20043;-60
2021/10/01 18:50:14;;;;;;;5.07;3.17;;;;;;;;;;5067539;28;20032;-60
2021/10/01 18:52:41;;;;;;;16.00;4.60;;;;;;;;;;5067145;28;20021;-60
2021/10/01 18:55:08;;;;;;;5.63;2.97;;;;;;;;;;5067635;28;20021;-60
2021/10/01 18:57:35;;;;;;;4.38;2.40;;;;;;;;;;5068074;28;20425;-60
2021/10/01 19:00:02;;;;;;;3.45;2.10;;;;;;;;;;5072596;28;20021;-60
2021/10/01 19:02:31;;;;;;;3.55;2.53;;;;;;;;;;5071966;28;20028;-59
2021/10/01 19:04:58;;;;;;;4.07;2.75;;;;;;;;;;5072585;28;20021;-60
2021/10/01 19:07:25;;;;;;;4.80;3.10;;;;;;;;;;5071807;28;20036;-59
2021/10/01 19:09:51;;;;;;;4.30;3.08;;;;;;;;;;5070847;28;20111;-60
2021/10/01 19:12:18;;;;;;;5.65;2.78;;;;;;;;;;5067209;28;20036;-59
2021/10/01 19:14:45;;;;;;;3.50;2.38;;;;;;;;;;5067213;28;20025;-60
2021/10/01 19:17:12;;;;;;;6.93;2.92;;;;;;;;;;5066806;28;20037;-60
2021/10/01 19:19:40;;;;;;;5.13;3.40;;;;;;;;;;5067441;28;20082;-60